• Join FlightAware (Why Join?)
  • Login
  • US Flag 
07:44PM EDT


 

Airport Tracker/Info


-or-


 

Live Flight TrackerFlight Track Log ✈ N350AB ✈ 04-May-2014 ✈ KABQ - KMAF

Flight Track Log - Related Links

Times and Time Zones

All times are in EDT time to prevent confusion due to time zone crossing. See the N350AB flight status page for this flight to view local times or setup timezone preferences in your user account.

Time Position Orientation Groundspeed Altitude Reporting Facility
EDT Latitude Longitude Course Direction KTS MPH feet Rate Location/Type
09:57AM 34.8391 -106.4754 120° Southeast 250 288 13,400  Level FlightAware ADS-B (KAEG)
09:58AM 34.8124 -106.4290 127° Southeast 244 281 14,600 1,620 Climbing FlightAware ADS-B (KAEG)
09:59AM 34.7836 -106.3796 125° Southeast 248 285 15,700 1,440 Climbing FlightAware ADS-B (KAEG)
10:00AM 34.7253 -106.2900 125° Southeast 248 285 17,800 1,260 Climbing Albuquerque Center
10:01AM 34.6817 -106.2225 128° Southeast 250 288 18,800 1,080 Climbing Albuquerque Center
10:02AM 34.6389 -106.1572 129° Southeast 251 289 20,100 1,320 Climbing Albuquerque Center
10:03AM 34.5967 -106.0925 128° Southeast 250 288 21,500 1,200 Climbing Albuquerque Center
10:04AM 34.5511 -106.0214 128° Southeast 249 287 22,600 1,020 Climbing Albuquerque Center
10:05AM 34.5083 -105.9542 128° Southeast 249 287 23,600 960 Climbing Albuquerque Center
10:06AM 34.4644 -105.8872 128° Southeast 250 288 24,600 660 Climbing Albuquerque Center
10:07AM 34.4194 -105.8169 128° Southeast 256 295 25,000 180 Climbing Albuquerque Center
10:08AM 34.3692 -105.7414 129° Southeast 276 318 25,000  Level Albuquerque Center
10:14AM 34.0678 -105.2806 128° Southeast 305 351 25,000  Level FlightAware ADS-B (KROW)
10:14AM 34.0424 -105.2421 128° Southeast 305 351 25,000  Level FlightAware ADS-B (KROW)
10:15AM 34.0233 -105.2134 128° Southeast 305 351 25,000  Level FlightAware ADS-B (KROW)
10:15AM 33.9999 -105.1781 128° Southeast 305 351 25,000  Level FlightAware ADS-B (KROW)
10:15AM 33.9786 -105.1460 128° Southeast 305 351 25,000  Level FlightAware ADS-B (KROW)
10:16AM 33.9364 -105.0826 128° Southeast 305 351 25,000  Level FlightAware ADS-B (KROW)
10:17AM 33.9103 -105.0432 128° Southeast 304 350 25,000  Level FlightAware ADS-B (KROW)
10:17AM 33.8828 -105.0019 128° Southeast 305 351 25,000  Level FlightAware ADS-B (KROW)
10:18AM 33.8564 -104.9624 128° Southeast 304 350 25,000  Level FlightAware ADS-B (KROW)
10:18AM 33.8303 -104.9234 128° Southeast 304 350 25,000  Level FlightAware ADS-B (KROW)
10:19AM 33.8040 -104.8841 128° Southeast 305 351 25,000  Level FlightAware ADS-B (KROW)
10:19AM 33.7770 -104.8437 128° Southeast 303 349 25,000  Level FlightAware ADS-B (KROW)
10:20AM 33.7512 -104.8052 128° Southeast 303 349 25,000  Level FlightAware ADS-B (KROW)
10:20AM 33.7250 -104.7661 128° Southeast 303 349 25,000  Level FlightAware ADS-B (KROW)
10:21AM 33.6983 -104.7263 128° Southeast 302 348 25,000  Level FlightAware ADS-B (KROW)
10:21AM 33.6725 -104.6878 128° Southeast 301 346 25,000  Level FlightAware ADS-B (KROW)
10:22AM 33.6452 -104.6472 128° Southeast 301 346 25,000  Level FlightAware ADS-B (KROW)
10:22AM 33.6207 -104.6109 128° Southeast 301 346 25,000  Level FlightAware ADS-B (KROW)
10:23AM 33.5930 -104.5698 128° Southeast 300 345 25,000  Level FlightAware ADS-B (KROW)
10:23AM 33.5670 -104.5312 128° Southeast 300 345 25,000  Level FlightAware ADS-B (KROW)
10:24AM 33.5405 -104.4920 128° Southeast 300 345 25,000  Level FlightAware ADS-B (KROW)
10:24AM 33.5144 -104.4534 128° Southeast 299 344 25,000  Level FlightAware ADS-B (KROW)
10:25AM 33.4906 -104.4183 129° Southeast 298 343 25,000  Level FlightAware ADS-B (KROW)
10:25AM 33.4618 -104.3758 129° Southeast 298 343 25,000  Level FlightAware ADS-B (KROW)
10:26AM 33.4365 -104.3387 129° Southeast 298 343 25,000  Level FlightAware ADS-B (KROW)
10:26AM 33.4109 -104.3009 129° Southeast 298 343 25,000  Level FlightAware ADS-B (KROW)
10:27AM 33.3838 -104.2611 129° Southeast 299 344 25,000  Level FlightAware ADS-B (KROW)
10:27AM 33.3591 -104.2249 129° Southeast 300 345 25,000  Level FlightAware ADS-B (KROW)
10:28AM 33.3316 -104.1845 129° Southeast 301 346 25,000  Level FlightAware ADS-B (KROW)
10:28AM 33.3047 -104.1451 129° Southeast 302 348 25,000  Level FlightAware ADS-B (KROW)
10:29AM 33.2785 -104.1067 129° Southeast 302 348 25,000  Level FlightAware ADS-B (KROW)
10:29AM 33.2520 -104.0679 129° Southeast 302 348 25,000  Level FlightAware ADS-B (KROW)
10:30AM 33.2250 -104.0284 129° Southeast 302 348 25,000  Level FlightAware ADS-B (KROW)
10:30AM 33.1984 -103.9897 129° Southeast 303 349 25,000  Level FlightAware ADS-B (KROW)
10:31AM 33.1715 -103.9503 129° Southeast 304 350 25,000  Level FlightAware ADS-B (KROW)
10:31AM 33.1463 -103.9136 129° Southeast 304 350 25,000  Level FlightAware ADS-B (KROW)
10:32AM 33.1188 -103.8737 129° Southeast 304 350 25,000  Level FlightAware ADS-B (KROW)
10:32AM 33.0928 -103.8359 129° Southeast 303 349 25,000  Level FlightAware ADS-B (KROW)
10:33AM 33.0653 -103.7959 129° Southeast 303 349 25,000  Level FlightAware ADS-B (KROW)
10:33AM 33.0380 -103.7563 129° Southeast 304 350 25,000  Level FlightAware ADS-B (KROW)
10:34AM 33.0108 -103.7168 129° Southeast 304 350 25,000  Level FlightAware ADS-B (KROW)
10:34AM 32.9840 -103.6781 129° Southeast 306 352 25,000  Level FlightAware ADS-B (KROW)
10:35AM 32.9588 -103.6418 129° Southeast 306 352 25,000  Level FlightAware ADS-B (KROW)
10:35AM 32.9321 -103.6032 129° Southeast 307 353 25,000  Level FlightAware ADS-B (KROW)
10:36AM 32.9025 -103.5605 129° Southeast 308 354 25,000  Level FlightAware ADS-B (KROW)
10:36AM 32.8768 -103.5235 129° Southeast 309 356 25,000  Level FlightAware ADS-B (KROW)
10:37AM 32.8488 -103.4832 129° Southeast 309 356 25,000  Level FlightAware ADS-B (KROW)
10:37AM 32.8205 -103.4427 129° Southeast 309 356 25,000  Level FlightAware ADS-B (KROW)
10:38AM 32.7948 -103.4055 129° Southeast 310 357 25,000  Level FlightAware ADS-B (KROW)
10:38AM 32.7685 -103.3677 129° Southeast 309 356 25,000  Level FlightAware ADS-B (KROW)
10:39AM 32.7407 -103.3278 129° Southeast 309 356 25,000  Level FlightAware ADS-B (KROW)
10:39AM 32.7147 -103.2906 129° Southeast 308 354 25,000 -420 Level FlightAware ADS-B (KROW)
10:40AM 32.6847 -103.2477 129° Southeast 323 372 24,600 -780 Descending FlightAware ADS-B (KROW)
10:40AM 32.6566 -103.2076 129° Southeast 330 380 24,200 -1,320 Descending FlightAware ADS-B (KROW)
10:41AM 32.6250 -103.1626 129° Southeast 339 390 23,300 -1,800 Descending FlightAware ADS-B (KROW)
10:41AM 32.5956 -103.1207 129° Southeast 335 386 22,400 -1,800 Descending FlightAware ADS-B (KROW)
10:42AM 32.5649 -103.0769 129° Southeast 343 395 21,500 -1,740 Descending FlightAware ADS-B (KROW)
10:42AM 32.5408 -103.0428 129° Southeast 345 397 20,800 -1,740 Descending FlightAware ADS-B (KROW)
10:43AM 32.5062 -102.9936 129° Southeast 339 390 19,800 -1,740 Descending FlightAware ADS-B (KROW)
10:43AM 32.4710 -102.9436 129° Southeast 334 384 18,800 -1,560 Descending FlightAware ADS-B (KROW)
10:44AM 32.4336 -102.8917 129° Southeast 339 390 17,700 -1,560 Descending Fort Worth Center
10:45AM 32.3764 -102.8100 130° Southeast 328 377 16,000 -1,860 Descending Fort Worth Center
10:46AM 32.3081 -102.7131 130° Southeast 327 376 13,900 -1,920 Descending Fort Worth Center
10:47AM 32.2525 -102.6356 130° Southeast 319 367 12,100 -1,800 Descending Fort Worth Center
10:48AM 32.2036 -102.5661 130° Southeast 285 328 10,300 -1,740 Descending Fort Worth Center
10:49AM 32.1528 -102.4961 131° Southeast 282 325 8,600 -1,500 Descending Fort Worth Center
10:50AM 32.0981 -102.4172 129° Southeast 277 319 7,200 -1,260 Descending Fort Worth Center
10:51AM 32.0572 -102.3406 122° Southeast 273 314 6,100 -1,200 Descending Fort Worth Center
10:52AM 32.0206 -102.2669 120° Southeast 264 304 4,800 -1,140 Descending Fort Worth Center
10:53AM 31.9992 -102.2158 116° Southeast 185 213 3,800 -840 Descending Fort Worth Center
10:54AM 31.9678 -102.2061 165° South 119 137 3,200 -600 Descending Fort Worth Center
10:56AM 31.9425 -102.2019 140° Southeast  Level Estimated
11:03AM 31.9425 -102.2019 140° Southeast  Level Estimated